Dabolt, Kentucky
Current Conditions -  °F | °C
As of 4:53 AM on Friday 28 Nov 2014 (Local Time) from KLOZ Reporting Station
Overcast Overcast  
Wind Chill: 26°   Ceiling: 3200
Heat Index: 26°   Visibility: 10mi
Dew Point: 16°   Wind: 3mph
Humidity: 66%   Direction: 300°WNW
Pressure: 30.39"   Gusts: NA
Location:  37.34°N, 84.03°W
Report Text: KLOZ 280953Z AUTO 30003KT 10SM OVC032 M03/M09 A3039 RMK AO2 SLP301 T10331089
Loading
Personal Weather Stations






























Interactive Weather Map New forecast layout! Learn more

10-Day Weather Forecast

Advertisements
Track Severe Weather on mobile